Time;durP1;ratioP1;P1;durP2;ratioP2;P2;SDS_P1;SDS_P2;PMS_P1;PMS_P2;Temp;Humidity;BMP_temperature;BMP_pressure;BME280_temperature;BME280_humidity;BME280_pressure;Samples;Min_cycle;Max_cycle;Signal;HPM_P1;HPM_P2
2022/02/08 00:01:07;;;;;;;14.33;4.07;;;6.30;81.10;;;;;;6166192;23;20753;-84
2022/02/08 00:03:57;;;;;;;10.37;4.40;;;6.30;81.80;;;;;;6155765;23;20756;-84
2022/02/08 00:06:56;;;;;;;16.70;5.43;;;6.30;82.50;;;;;;6166314;23;20420;-86
2022/02/08 00:09:49;;;;;;;24.83;5.93;;;6.50;82.70;;;;;;6166104;23;20519;-85
2022/02/08 00:12:35;;;;;;;14.87;6.40;;;6.60;84.70;;;;;;6166691;23;20503;-86
2022/02/08 00:15:35;;;;;;;17.47;9.20;;;6.60;86.80;;;;;;6168195;23;20390;-85
2022/02/08 00:18:28;;;;;;;18.93;10.63;;;6.60;89.60;;;;;;6167977;23;20927;-85
2022/02/08 00:21:26;;;;;;;21.60;13.20;;;6.60;90.60;;;;;;6167796;23;20395;-86
2022/02/08 00:24:13;;;;;;;17.20;12.20;;;6.50;91.20;;;;;;6168800;23;20406;-84
2022/02/08 00:27:07;;;;;;;19.80;13.23;;;6.50;91.60;;;;;;6168188;23;20830;-86
2022/02/08 00:29:59;;;;;;;20.63;15.07;;;6.50;91.90;;;;;;6150512;23;20453;-85
2022/02/08 00:32:44;;;;;;;20.10;17.87;;;6.60;92.20;;;;;;6157826;23;20743;-84
2022/02/08 00:35:48;;;;;;;15.97;13.00;;;6.50;92.50;;;;;;6167713;23;20759;-84
2022/02/08 00:38:57;;;;;;;;;;;;;;;;;;;;;
2022/02/08 00:45:16;;;;;;;25.70;23.50;;;6.30;92.90;;;;;;6157324;23;20409;-84
2022/02/08 00:51:11;;;;;;;95.60;91.00;;;6.10;96.50;;;;;;6152269;23;20730;-83
2022/02/08 00:54:08;;;;;;;182.07;175.50;;;6.10;99.60;;;;;;6167682;23;20413;-83
2022/02/08 01:00:28;;;;;;;283.60;273.20;;;5.80;99.90;;;;;;6115369;23;20508;-85
2022/02/08 01:06:35;;;;;;;;;;;;;;;;;;;;;
2022/02/08 01:15:29;;;;;;;418.83;399.97;;;5.70;99.90;;;;;;6136617;23;20485;-83
2022/02/08 01:24:51;;;;;;;487.33;462.37;;;5.70;99.90;;;;;;6129230;23;20413;-85
2022/02/08 01:28:09;;;;;;;518.47;491.80;;;5.70;99.90;;;;;;6166795;23;20472;-84
2022/02/08 01:44:02;;;;;;;;;;;;;;;;;;;;;
2022/02/08 01:53:10;;;;;;;574.37;540.27;;;5.80;99.90;;;;;;6156965;23;20893;-85
2022/02/08 02:05:46;;;;;;;567.67;535.07;;;5.90;99.90;;;;;;6103316;23;20469;-84
2022/02/08 02:08:51;;;;;;;561.17;529.27;;;6.00;99.90;;;;;;6164231;23;20509;-85
2022/02/08 02:11:40;;;;;;;550.07;520.07;;;5.90;99.90;;;;;;6095547;23;20488;-84
2022/02/08 02:14:34;;;;;;;552.33;522.30;;;6.00;99.90;;;;;;6157361;23;20416;-83
2022/02/08 02:17:13;;;;;;;523.30;494.90;;;6.00;99.90;;;;;;6166842;23;20473;-83
2022/02/08 02:22:42;;;;;;;504.67;478.57;;;6.20;99.90;;;;;;6156160;23;20818;-84
2022/02/08 02:25:48;;;;;;;492.27;466.00;;;6.20;99.90;;;;;;6168212;23;20417;-83
2022/02/08 02:31:50;;;;;;;480.10;456.60;;;6.30;99.90;;;;;;6146521;23;20525;-85
2022/02/08 02:35:00;;;;;;;480.57;456.57;;;6.30;99.90;;;;;;6142993;23;20907;-84
2022/02/08 02:37:44;;;;;;;485.90;462.00;;;6.40;99.90;;;;;;6144637;23;20912;-84
2022/02/08 02:40:56;;;;;;;497.23;472.53;;;6.40;99.90;;;;;;6166652;23;20433;-86
2022/02/08 02:43:59;;;;;;;465.23;443.13;;;6.40;99.90;;;;;;6166519;23;20517;-85
2022/02/08 02:55:50;;;;;;;508.93;482.63;;;6.50;99.90;;;;;;6156002;23;20417;-85
2022/02/08 03:01:57;;;;;;;499.13;473.63;;;6.60;99.90;;;;;;6145204;23;20557;-86
2022/02/08 03:05:17;;;;;;;495.30;470.67;;;6.70;99.90;;;;;;6166390;23;20418;-84
2022/02/08 03:20:01;;;;;;;508.27;482.47;;;6.80;99.90;;;;;;6166173;23;20549;-85
2022/02/08 03:22:52;;;;;;;502.40;476.30;;;6.70;99.90;;;;;;6156674;23;20442;-85
2022/02/08 03:25:51;;;;;;;494.97;469.93;;;6.70;99.90;;;;;;6166607;23;20424;-85
2022/02/08 03:28:34;;;;;;;499.93;474.57;;;6.80;99.90;;;;;;6166436;23;20837;-84
2022/02/08 03:31:17;;;;;;;498.23;472.73;;;6.90;99.90;;;;;;6166026;23;20472;-84
2022/02/08 03:36:50;;;;;;;491.20;466.20;;;6.90;99.90;;;;;;6155941;23;20485;-86
2022/02/08 03:43:09;;;;;;;;;;;;;;;;;;;;;
2022/02/08 03:46:21;;;;;;;487.00;462.60;;;7.00;99.90;;;;;;6155791;23;20417;-85
2022/02/08 03:49:27;;;;;;;497.80;472.83;;;7.00;99.90;;;;;;6119907;23;20444;-84
2022/02/08 03:55:38;;;;;;;518.53;490.90;;;7.00;99.90;;;;;;6141819;23;20414;-85
2022/02/08 03:58:28;;;;;;;538.37;510.57;;;7.10;99.90;;;;;;6155320;23;20413;-88
2022/02/08 04:04:51;;;;;;;524.27;495.50;;;7.10;99.90;;;;;;5968341;23;20451;-84
2022/02/08 04:07:40;;;;;;;533.53;503.70;;;7.10;99.90;;;;;;6046835;23;20425;-85
2022/02/08 04:10:42;;;;;;;553.97;520.37;;;7.10;99.90;;;;;;6166120;23;20446;-87
2022/02/08 04:32:23;;;;;;;596.97;558.80;;;7.20;99.90;;;;;;6165948;23;20404;-84
2022/02/08 04:41:19;;;;;;;601.07;561.30;;;7.20;99.90;;;;;;6151433;23;20500;-84
2022/02/08 04:44:24;;;;;;;595.60;555.30;;;7.40;99.90;;;;;;6165750;23;20444;-84
2022/02/08 04:46:59;;;;;;;603.13;563.43;;;7.30;99.90;;;;;;6166108;23;20394;-83
2022/02/08 04:49:25;;;;;;;608.63;567.97;;;7.30;99.90;;;;;;6155232;23;20441;-82
2022/02/08 04:51:58;;;;;;;619.37;578.40;;;7.30;99.90;;;;;;6155603;23;20449;-83
2022/02/08 04:54:31;;;;;;;631.60;586.80;;;7.30;99.90;;;;;;6157515;23;20865;-84
2022/02/08 04:57:08;;;;;;;666.30;617.50;;;7.30;99.90;;;;;;6155804;23;20429;-81
2022/02/08 05:00:13;;;;;;;702.83;649.77;;;7.30;99.90;;;;;;6155367;23;20766;-80
2022/02/08 05:35:46;;;;;;;711.60;647.17;;;7.40;99.90;;;;;;6166718;23;20386;-81
2022/02/08 05:44:02;;;;;;;713.33;647.43;;;7.30;99.90;;;;;;6155787;23;20764;-81
2022/02/08 05:49:26;;;;;;;727.57;661.67;;;7.40;99.90;;;;;;6166446;23;20505;-81
2022/02/08 05:52:20;;;;;;;724.27;658.47;;;7.30;99.90;;;;;;6157092;23;20762;-81
2022/02/08 05:54:45;;;;;;;713.47;648.17;;;7.30;99.90;;;;;;6155443;23;20933;-81
2022/02/08 05:57:13;;;;;;;715.27;649.30;;;7.40;99.90;;;;;;6155888;23;20410;-81
2022/02/08 05:59:45;;;;;;;725.97;659.07;;;7.30;99.90;;;;;;6155665;23;20430;-81
2022/02/08 06:02:12;;;;;;;728.33;660.00;;;7.40;99.90;;;;;;6155477;23;20468;-81
2022/02/08 06:04:39;;;;;;;734.17;664.77;;;7.40;99.90;;;;;;6155563;23;20414;-82
2022/02/08 06:07:06;;;;;;;738.07;669.33;;;7.30;99.90;;;;;;6155992;23;20923;-81
2022/02/08 06:09:34;;;;;;;738.20;667.90;;;7.40;99.90;;;;;;6157061;23;21159;-82
2022/02/08 06:12:00;;;;;;;742.80;671.67;;;7.40;99.90;;;;;;6156726;23;20942;-81
2022/02/08 06:14:29;;;;;;;742.40;672.20;;;7.40;99.90;;;;;;6156977;23;20414;-83
2022/02/08 06:16:56;;;;;;;744.67;673.30;;;7.40;99.90;;;;;;6157163;23;20414;-82
2022/02/08 06:19:24;;;;;;;744.00;670.73;;;7.50;99.90;;;;;;6156378;23;20434;-85
2022/02/08 06:21:50;;;;;;;745.13;672.23;;;7.40;99.90;;;;;;6156326;23;20417;-84
2022/02/08 06:24:17;;;;;;;747.53;674.33;;;7.40;99.90;;;;;;6155868;23;20438;-84
2022/02/08 06:26:44;;;;;;;743.30;670.00;;;7.50;99.90;;;;;;6156584;23;20757;-83
2022/02/08 06:29:15;;;;;;;744.77;672.30;;;7.40;99.90;;;;;;6155575;23;20522;-86
2022/02/08 06:31:45;;;;;;;756.37;683.17;;;7.40;99.90;;;;;;6156653;23;20398;-83
2022/02/08 06:34:19;;;;;;;772.80;699.73;;;7.40;99.90;;;;;;6156680;23;20398;-83
2022/02/08 06:36:47;;;;;;;777.50;704.57;;;7.50;99.90;;;;;;6167052;23;20485;-80
2022/02/08 06:39:20;;;;;;;776.67;703.80;;;7.50;99.90;;;;;;6156140;23;20433;-82
2022/02/08 06:41:47;;;;;;;783.07;710.00;;;7.50;99.90;;;;;;6160773;23;20425;-81
2022/02/08 06:44:17;;;;;;;786.07;713.90;;;7.60;99.90;;;;;;6169904;23;20445;-81
2022/02/08 06:46:45;;;;;;;806.13;732.77;;;7.50;99.90;;;;;;6166118;23;20469;-81
2022/02/08 06:49:12;;;;;;;812.00;738.00;;;7.70;99.90;;;;;;6156964;23;20434;-81
2022/02/08 06:51:39;;;;;;;792.60;718.90;;;7.60;99.90;;;;;;6157737;23;20828;-82
2022/02/08 06:54:11;;;;;;;793.60;720.20;;;7.60;99.90;;;;;;6157106;23;20437;-82
2022/02/08 06:56:39;;;;;;;780.20;708.43;;;7.60;99.90;;;;;;6157105;23;20402;-83
2022/02/08 06:59:08;;;;;;;783.83;711.37;;;7.70;99.90;;;;;;6156414;23;20886;-83
2022/02/08 07:01:37;;;;;;;789.03;716.57;;;7.70;99.90;;;;;;6156657;23;20918;-84
2022/02/08 07:04:11;;;;;;;793.47;721.97;;;7.70;99.90;;;;;;6166815;23;20466;-84
2022/02/08 07:06:50;;;;;;;798.40;726.20;;;7.80;99.90;;;;;;6167063;23;20410;-84
2022/02/08 07:09:43;;;;;;;779.73;709.00;;;7.70;99.90;;;;;;6158031;23;20438;-83
2022/02/08 07:12:27;;;;;;;790.30;718.80;;;7.80;99.90;;;;;;6167243;23;20414;-82
2022/02/08 07:14:55;;;;;;;776.87;705.80;;;7.80;99.90;;;;;;6156896;23;20402;-84
2022/02/08 07:17:22;;;;;;;777.77;707.00;;;7.80;99.90;;;;;;6157869;23;20422;-83
2022/02/08 07:19:55;;;;;;;779.07;711.37;;;7.90;99.90;;;;;;6165610;23;20457;-84
2022/02/08 07:22:32;;;;;;;778.37;709.53;;;7.90;99.90;;;;;;6156406;23;20480;-84
2022/02/08 07:25:04;;;;;;;774.07;705.63;;;7.90;99.90;;;;;;6165277;23;20765;-83
2022/02/08 07:27:34;;;;;;;784.13;716.03;;;7.90;99.90;;;;;;6166366;23;20476;-84
2022/02/08 07:30:09;;;;;;;794.70;726.63;;;8.00;99.90;;;;;;6165399;23;20784;-83
2022/02/08 07:32:38;;;;;;;778.33;712.17;;;8.00;99.90;;;;;;6166632;23;20394;-83
2022/02/08 07:35:29;;;;;;;783.37;716.87;;;8.10;99.90;;;;;;6166327;23;20402;-83
2022/02/08 07:38:04;;;;;;;785.33;720.63;;;8.10;99.90;;;;;;6165005;23;20917;-82
2022/02/08 07:41:36;;;;;;;762.37;699.17;;;8.10;99.90;;;;;;6165806;23;20425;-83
2022/02/08 07:43:33;;;;;;;758.97;696.67;;;8.30;99.90;;;;;;6156084;23;20444;-83
2022/02/08 07:46:06;;;;;;;762.60;701.67;;;8.20;99.90;;;;;;6166009;23;20492;-83
2022/02/08 07:48:37;;;;;;;747.07;687.90;;;8.30;99.90;;;;;;6165845;23;20438;-83
2022/02/08 07:51:10;;;;;;;736.93;679.80;;;8.30;99.90;;;;;;6165615;23;20409;-83
2022/02/08 07:53:40;;;;;;;730.00;675.60;;;8.40;99.90;;;;;;6165898;23;20410;-84
2022/02/08 07:56:07;;;;;;;723.27;669.47;;;8.50;99.90;;;;;;6165404;23;20422;-84
2022/02/08 07:58:37;;;;;;;710.83;658.47;;;8.40;99.90;;;;;;6165116;23;20438;-82
2022/02/08 08:01:09;;;;;;;704.27;654.43;;;8.50;99.90;;;;;;6165818;23;20413;-84
2022/02/08 08:03:40;;;;;;;690.43;641.83;;;8.50;99.90;;;;;;6165718;23;20484;-83
2022/02/08 08:06:10;;;;;;;679.93;632.67;;;8.50;99.90;;;;;;6166152;23;20413;-84
2022/02/08 08:08:49;;;;;;;672.03;626.47;;;8.60;99.90;;;;;;6165045;23;20493;-81
2022/02/08 08:11:25;;;;;;;656.70;614.00;;;8.70;99.90;;;;;;6165497;23;20397;-83
2022/02/08 08:14:02;;;;;;;637.87;598.37;;;8.60;99.90;;;;;;6164392;23;20417;-83
2022/02/08 08:16:47;;;;;;;647.33;608.57;;;8.60;99.90;;;;;;6165730;23;21010;-83
2022/02/08 08:19:23;;;;;;;640.87;601.17;;;8.60;99.90;;;;;;6164849;23;20959;-83
2022/02/08 08:22:04;;;;;;;602.90;568.27;;;8.60;99.90;;;;;;6165035;23;20420;-83
2022/02/08 08:24:33;;;;;;;617.70;582.77;;;8.60;99.90;;;;;;6164597;23;20440;-82
2022/02/08 08:27:01;;;;;;;590.47;558.17;;;8.70;99.90;;;;;;6165034;23;20422;-85
2022/02/08 08:29:43;;;;;;;560.23;529.70;;;8.70;99.90;;;;;;6164262;23;20462;-84
2022/02/08 08:32:19;;;;;;;532.60;505.60;;;8.70;99.90;;;;;;6164808;23;20418;-83
2022/02/08 08:34:51;;;;;;;513.93;488.30;;;8.80;99.90;;;;;;6165982;23;20413;-85
2022/02/08 08:37:41;;;;;;;497.23;472.63;;;8.80;99.90;;;;;;6167442;23;20410;-83
2022/02/08 08:40:21;;;;;;;486.10;463.47;;;8.90;99.90;;;;;;6167951;23;20445;-83
2022/02/08 08:43:30;;;;;;;488.77;466.57;;;9.00;99.90;;;;;;6169818;23;20465;-82
2022/02/08 08:49:22;;;;;;;481.70;460.10;;;9.00;99.90;;;;;;6167617;23;20881;-83
2022/02/08 08:52:10;;;;;;;481.17;459.90;;;9.00;99.90;;;;;;6157707;23;20429;-84
2022/02/08 08:55:17;;;;;;;471.40;449.00;;;9.10;99.90;;;;;;6167198;23;20489;-83
2022/02/08 08:58:10;;;;;;;481.73;461.03;;;9.20;99.90;;;;;;6156074;23;20421;-83
2022/02/08 09:00:46;;;;;;;476.03;455.53;;;9.30;99.90;;;;;;6090254;23;20841;-83
2022/02/08 09:03:47;;;;;;;453.80;434.50;;;9.30;99.90;;;;;;6166488;23;20405;-85
2022/02/08 09:06:27;;;;;;;438.70;420.40;;;9.30;99.90;;;;;;6128341;23;20426;-82
2022/02/08 09:09:14;;;;;;;438.77;421.00;;;9.50;99.90;;;;;;6156735;23;20437;-84
2022/02/08 09:12:51;;;;;;;433.67;415.97;;;9.40;99.90;;;;;;6167090;23;20910;-82
2022/02/08 09:15:45;;;;;;;;;;;;;;;;;;;;;
2022/02/08 09:21:58;;;;;;;380.00;365.67;;;9.60;99.90;;;;;;6155813;23;20409;-82
2022/02/08 09:24:51;;;;;;;362.27;348.70;;;9.70;99.90;;;;;;6156637;23;20822;-84
2022/02/08 09:30:11;;;;;;;302.87;292.07;;;9.80;99.90;;;;;;6156775;23;20433;-83
2022/02/08 09:32:44;;;;;;;337.07;324.73;;;9.70;99.90;;;;;;6157590;23;20429;-83
2022/02/08 09:35:15;;;;;;;318.97;307.07;;;9.80;99.90;;;;;;6157378;23;20394;-82
2022/02/08 09:37:55;;;;;;;;;;;;;;;;;;;;;
2022/02/08 09:40:25;;;;;;;320.50;309.23;;;9.80;99.90;;;;;;6156532;23;20441;-83
2022/02/08 09:42:58;;;;;;;288.07;277.97;;;9.80;99.90;;;;;;6157588;23;20395;-84
2022/02/08 09:45:32;;;;;;;306.17;295.37;;;9.90;99.90;;;;;;6157266;23;20754;-83
2022/02/08 09:48:02;;;;;;;285.57;275.57;;;9.90;99.90;;;;;;6157290;23;20429;-83
2022/02/08 09:50:41;;;;;;;279.57;269.90;;;9.90;99.90;;;;;;6157295;23;20526;-83
2022/02/08 09:53:13;;;;;;;311.23;300.37;;;10.00;99.90;;;;;;6156990;23;20449;-80
2022/02/08 09:55:43;;;;;;;266.60;256.77;;;10.00;99.90;;;;;;6157135;23;20398;-82
2022/02/08 09:58:12;;;;;;;275.03;265.83;;;10.00;99.90;;;;;;6156950;23;20441;-82
2022/02/08 10:00:41;;;;;;;266.70;257.23;;;10.00;99.90;;;;;;6156504;23;20425;-84
2022/02/08 10:03:10;;;;;;;245.03;235.97;;;10.10;99.90;;;;;;6164936;23;20418;-83
2022/02/08 10:05:45;;;;;;;211.87;204.83;;;10.00;99.90;;;;;;6156509;23;21022;-82
2022/02/08 10:08:14;;;;;;;230.40;222.70;;;10.00;99.90;;;;;;6156189;23;20492;-84
2022/02/08 10:10:42;;;;;;;220.60;212.70;;;10.00;99.90;;;;;;6156384;23;21003;-82
2022/02/08 10:13:30;;;;;;;233.60;225.93;;;10.10;99.90;;;;;;6156342;23;20901;-84
2022/02/08 10:21:46;;;;;;;175.70;169.30;;;10.00;99.90;;;;;;6156851;23;20389;-81
2022/02/08 10:24:16;;;;;;;143.60;138.50;;;10.00;99.90;;;;;;6156505;23;20453;-83
2022/02/08 10:26:55;;;;;;;128.87;124.37;;;10.00;99.90;;;;;;6157068;23;20410;-84
2022/02/08 10:29:28;;;;;;;95.97;92.13;;;10.00;99.90;;;;;;6156649;23;20457;-83
2022/02/08 10:32:20;;;;;;;139.00;134.03;;;10.00;99.90;;;;;;6156474;23;20402;-83
2022/02/08 10:37:47;;;;;;;132.93;128.27;;;10.10;99.90;;;;;;6167184;23;20388;-82
2022/02/08 10:40:18;;;;;;;102.07;97.90;;;10.20;99.90;;;;;;6159752;23;20449;-84
2022/02/08 10:42:52;;;;;;;82.03;78.87;;;10.30;99.90;;;;;;6157624;23;20406;-84
2022/02/08 10:45:22;;;;;;;61.87;58.87;;;10.30;99.90;;;;;;6157392;23;20429;-83
2022/02/08 10:47:56;;;;;;;50.97;48.77;;;10.30;99.90;;;;;;6166705;23;20409;-85
2022/02/08 10:50:24;;;;;;;46.37;44.07;;;10.30;99.90;;;;;;6161137;23;20768;-82
2022/02/08 10:52:58;;;;;;;42.77;40.83;;;10.40;99.90;;;;;;6157221;23;20940;-84
2022/02/08 10:55:38;;;;;;;41.70;39.57;;;10.40;99.90;;;;;;6156594;23;20409;-81
2022/02/08 10:58:18;;;;;;;27.10;25.60;;;10.40;99.90;;;;;;6156578;23;20402;-79
2022/02/08 11:00:49;;;;;;;23.33;21.73;;;10.50;99.90;;;;;;6156087;23;20456;-81
2022/02/08 11:03:31;;;;;;;21.47;20.20;;;10.50;99.90;;;;;;6156416;23;20398;-82
2022/02/08 11:06:08;;;;;;;16.33;15.00;;;10.50;99.90;;;;;;6156318;23;20418;-82
2022/02/08 11:08:55;;;;;;;20.23;18.50;;;10.60;99.90;;;;;;6156548;23;20516;-82
2022/02/08 11:11:53;;;;;;;14.37;13.27;;;10.60;99.80;;;;;;6156263;23;20485;-82
2022/02/08 11:14:32;;;;;;;11.07;10.13;;;10.70;99.50;;;;;;6156445;23;20397;-82
2022/02/08 11:22:42;;;;;;;12.10;7.97;;;10.80;97.90;;;;;;6150973;23;20488;-82
2022/02/08 11:25:18;;;;;;;8.20;6.50;;;10.80;97.90;;;;;;6156980;23;20422;-82
2022/02/08 11:27:52;;;;;;;7.43;6.73;;;10.90;97.50;;;;;;6156115;23;20398;-82
2022/02/08 11:30:38;;;;;;;9.53;6.97;;;10.90;97.10;;;;;;6156689;23;20435;-82
2022/02/08 11:33:33;;;;;;;7.27;6.30;;;10.90;96.60;;;;;;6155705;23;20405;-82
2022/02/08 11:39:28;;;;;;;7.57;6.30;;;11.10;96.10;;;;;;6164865;23;20456;-82
2022/02/08 11:45:05;;;;;;;8.30;5.00;;;11.10;96.00;;;;;;6155515;23;20527;-81
2022/02/08 11:50:48;;;;;;;6.73;5.30;;;11.10;96.10;;;;;;6119090;23;20754;-82
2022/02/08 11:53:27;;;;;;;7.27;6.57;;;11.00;96.30;;;;;;6156780;23;20398;-82
2022/02/08 11:58:50;;;;;;;11.70;6.33;;;11.10;96.20;;;;;;6155945;23;20421;-81
2022/02/08 12:01:24;;;;;;;7.47;6.17;;;11.10;95.90;;;;;;6156193;23;20400;-82
2022/02/08 12:04:15;;;;;;;7.00;4.90;;;11.20;96.30;;;;;;6156230;23;20429;-82
2022/02/08 12:09:43;;;;;;;7.67;5.37;;;11.30;95.60;;;;;;6144802;23;20436;-82
2022/02/08 12:12:37;;;;;;;7.97;4.30;;;11.40;95.20;;;;;;6158823;23;20394;-82
2022/02/08 12:32:20;;;;;;;7.57;4.00;;;11.50;94.20;;;;;;6168350;23;20387;-82
2022/02/08 12:55:22;;;;;;;6.57;2.90;;;11.70;93.50;;;;;;6167810;23;20440;-82
2022/02/08 12:58:13;;;;;;;12.50;3.13;;;11.70;93.00;;;;;;6157787;23;20398;-82
2022/02/08 13:01:14;;;;;;;8.03;2.87;;;11.80;93.00;;;;;;6161057;23;20482;-82
2022/02/08 13:04:03;;;;;;;8.47;3.80;;;11.80;92.60;;;;;;6168092;23;20406;-83
2022/02/08 14:01:34;;;;;;;11.90;2.90;;;11.80;90.00;;;;;;6157772;23;20730;-82
2022/02/08 14:06:17;;;;;;;5.50;2.97;;;11.80;85.00;;;;;;6157557;23;20453;-82
2022/02/08 14:09:03;;;;;;;7.10;2.63;;;11.90;85.90;;;;;;6157025;23;20476;-82
2022/02/08 14:12:09;;;;;;;5.97;2.70;;;11.80;84.80;;;;;;6157061;23;20457;-82
2022/02/08 14:14:45;;;;;;;6.03;2.57;;;11.80;85.70;;;;;;6158222;23;20414;-82
2022/02/08 14:20:43;;;;;;;6.43;2.33;;;11.80;85.00;;;;;;6159790;23;20429;-81
2022/02/08 14:23:40;;;;;;;6.13;2.40;;;11.80;85.00;;;;;;6160469;23;20452;-82
2022/02/08 14:31:57;;;;;;;7.93;2.20;;;11.90;84.10;;;;;;6102870;23;20400;-82
2022/02/08 15:05:43;;;;;;;3.93;1.50;;;11.90;86.10;;;;;;5116634;28;20424;-81
2022/02/08 15:08:24;;;;;;;11.37;1.77;;;11.90;86.20;;;;;;5115801;28;20463;-81
2022/02/08 15:10:54;;;;;;;4.80;3.00;;;11.80;87.20;;;;;;5115976;28;20448;-81
2022/02/08 15:13:26;;;;;;;6.70;2.73;;;11.70;87.50;;;;;;5116129;28;20449;-82
2022/02/08 15:16:15;;;;;;;5.60;3.37;;;11.70;88.40;;;;;;5116190;28;21007;-81
2022/02/08 15:18:43;;;;;;;5.07;2.63;;;11.80;89.70;;;;;;5116019;28;20988;-81
2022/02/08 15:21:17;;;;;;;6.63;2.40;;;11.60;88.90;;;;;;5115491;28;20506;-82
2022/02/08 15:23:43;;;;;;;9.50;2.93;;;11.50;89.70;;;;;;5114938;28;20456;-81
2022/02/08 15:26:13;;;;;;;9.17;2.63;;;11.30;90.50;;;;;;5115707;28;20488;-81
2022/02/08 15:28:40;;;;;;;6.80;3.70;;;11.20;90.60;;;;;;5115024;28;21038;-81
2022/02/08 15:31:08;;;;;;;7.67;3.47;;;11.10;91.10;;;;;;5114874;28;20453;-81
2022/02/08 15:33:37;;;;;;;9.83;4.70;;;11.10;91.40;;;;;;5116130;28;20456;-82
2022/02/08 15:36:06;;;;;;;5.40;4.50;;;11.10;91.40;;;;;;5116357;28;20473;-81
2022/02/08 15:41:18;;;;;;;9.33;6.30;;;11.00;92.20;;;;;;5113309;28;20456;-82
2022/02/08 15:44:17;;;;;;;;;;;;;;;;;;;;;
2022/02/08 15:46:45;;;;;;;12.23;11.30;;;11.00;92.90;;;;;;5113319;28;20433;-82
2022/02/08 15:49:15;;;;;;;17.30;16.27;;;10.90;93.50;;;;;;5100220;28;20469;-82
2022/02/08 15:51:54;;;;;;;20.37;19.37;;;10.80;93.90;;;;;;5102305;28;20449;-81
2022/02/08 15:54:25;;;;;;;33.50;31.50;;;10.80;94.20;;;;;;5100441;28;20446;-81
2022/02/08 15:57:31;;;;;;;38.20;36.40;;;10.70;95.10;;;;;;5101121;28;20480;-81
2022/02/08 16:00:21;;;;;;;42.57;40.77;;;10.70;95.70;;;;;;5100382;28;20476;-82
2022/02/08 16:08:44;;;;;;;86.27;83.27;;;10.50;97.30;;;;;;5097823;28;20465;-82
2022/02/08 16:11:33;;;;;;;80.97;78.07;;;10.40;97.70;;;;;;5097963;28;20489;-81
2022/02/08 16:14:15;;;;;;;94.43;90.90;;;10.40;97.70;;;;;;5099304;28;20522;-83
2022/02/08 16:17:18;;;;;;;82.43;78.73;;;10.30;97.70;;;;;;5101288;28;20479;-81
2022/02/08 16:19:52;;;;;;;71.10;68.30;;;10.40;97.80;;;;;;5100641;28;20473;-81
2022/02/08 16:25:24;;;;;;;69.43;66.87;;;10.30;97.50;;;;;;5135534;27;20533;-81
2022/02/08 16:28:23;;;;;;;90.83;87.53;;;10.30;97.40;;;;;;5127265;27;20449;-80
2022/02/08 16:54:16;;;;;;;147.37;141.97;;;10.10;99.10;;;;;;5104488;28;20433;-80
2022/02/08 16:57:01;;;;;;;150.67;145.37;;;10.10;98.90;;;;;;5109401;28;20457;-81
2022/02/08 16:59:33;;;;;;;145.47;140.17;;;10.00;98.70;;;;;;5112477;28;20521;-80
2022/02/08 17:02:03;;;;;;;152.37;146.63;;;10.10;98.70;;;;;;5098790;28;20442;-80
2022/02/08 17:04:35;;;;;;;158.83;152.63;;;10.00;98.80;;;;;;5113204;28;20473;-80
2022/02/08 17:07:02;;;;;;;161.50;155.63;;;10.00;98.90;;;;;;5111546;28;20827;-80
2022/02/08 17:09:42;;;;;;;156.27;150.57;;;9.90;99.60;;;;;;5095064;28;20470;-80
2022/02/08 17:12:25;;;;;;;167.20;161.43;;;10.00;99.10;;;;;;5107225;28;20450;-80
2022/02/08 17:15:17;;;;;;;167.53;161.53;;;9.90;99.70;;;;;;5096435;28;20454;-80
2022/02/08 17:34:47;;;;;;;155.43;149.67;;;9.90;99.40;;;;;;5116376;28;20436;-81
2022/02/08 17:48:20;;;;;;;137.87;133.07;;;9.80;99.00;;;;;;5050198;28;20474;-81
2022/02/08 17:50:48;;;;;;;138.60;133.60;;;9.90;99.20;;;;;;5061232;28;20451;-81
2022/02/08 17:53:15;;;;;;;145.27;140.17;;;10.00;98.80;;;;;;5072471;28;20451;-81
2022/02/08 17:55:42;;;;;;;142.00;137.13;;;9.90;99.30;;;;;;5056281;28;20455;-81
2022/02/08 17:58:09;;;;;;;156.57;151.17;;;9.80;99.40;;;;;;5061080;28;20450;-80
2022/02/08 18:00:36;;;;;;;151.03;145.53;;;9.90;99.40;;;;;;5079167;28;20481;-81
2022/02/08 18:03:04;;;;;;;153.27;147.57;;;9.90;99.50;;;;;;5074394;28;20456;-80
2022/02/08 18:05:32;;;;;;;166.13;160.37;;;9.90;99.50;;;;;;5058665;28;20445;-80
2022/02/08 18:07:59;;;;;;;164.50;158.43;;;9.90;99.60;;;;;;5061616;28;20453;-80
2022/02/08 18:10:26;;;;;;;151.67;145.90;;;9.90;99.80;;;;;;5059921;28;20550;-80
2022/02/08 18:12:57;;;;;;;162.87;156.97;;;9.90;99.60;;;;;;5072921;28;20469;-81
2022/02/08 18:15:26;;;;;;;171.43;165.47;;;9.80;99.80;;;;;;5068505;28;20473;-81
2022/02/08 18:17:56;;;;;;;170.97;165.13;;;9.90;99.80;;;;;;5058159;28;20455;-81
2022/02/08 18:20:34;;;;;;;200.23;193.43;;;9.90;99.90;;;;;;5057305;28;20443;-81
2022/02/08 18:28:54;;;;;;;217.17;209.60;;;9.80;99.90;;;;;;5037808;28;20462;-80
2022/02/08 19:07:19;;;;;;;83.20;80.00;;;9.80;98.30;;;;;;5083961;28;20453;-81
2022/02/08 19:09:52;;;;;;;74.43;71.50;;;9.70;98.50;;;;;;5080591;28;20505;-80
2022/02/08 19:12:23;;;;;;;66.27;63.37;;;9.80;98.00;;;;;;5081399;28;20892;-81
2022/02/08 19:17:49;;;;;;;42.80;41.10;;;9.80;98.00;;;;;;5080928;28;20445;-80
2022/02/08 19:20:23;;;;;;;35.87;34.23;;;9.90;97.20;;;;;;5080345;28;20481;-83
2022/02/08 19:22:49;;;;;;;33.97;32.30;;;9.80;97.00;;;;;;5082278;28;20451;-81
2022/02/08 19:25:16;;;;;;;28.67;27.13;;;9.80;96.80;;;;;;5090625;28;20473;-81
2022/02/08 19:27:46;;;;;;;25.03;23.63;;;9.80;96.80;;;;;;5079126;28;20451;-80
2022/02/08 19:30:14;;;;;;;31.70;30.20;;;9.90;96.50;;;;;;5080058;28;20533;-81
2022/02/08 19:32:41;;;;;;;36.53;34.80;;;9.80;96.80;;;;;;5100048;28;20476;-81
2022/02/08 19:35:13;;;;;;;40.83;38.87;;;9.70;96.80;;;;;;5083138;28;20795;-81
2022/02/08 19:37:40;;;;;;;38.77;37.07;;;9.70;97.20;;;;;;5083545;28;20451;-80
2022/02/08 19:40:08;;;;;;;43.57;41.60;;;9.80;97.10;;;;;;5100387;28;20469;-80
2022/02/08 19:42:35;;;;;;;44.57;42.67;;;9.70;97.10;;;;;;5086753;28;20454;-81
2022/02/08 19:45:12;;;;;;;50.87;48.80;;;9.70;97.30;;;;;;5082255;28;20524;-81
2022/02/08 19:47:39;;;;;;;52.10;49.70;;;9.70;97.60;;;;;;5094636;28;20471;-81
2022/02/08 19:50:07;;;;;;;56.90;54.47;;;9.60;97.50;;;;;;5102013;28;20484;-81
2022/02/08 19:52:35;;;;;;;51.67;48.97;;;9.70;97.90;;;;;;5087200;28;20446;-81
2022/02/08 19:55:20;;;;;;;53.53;50.93;;;9.70;97.70;;;;;;5081578;28;20447;-81
2022/02/08 19:57:49;;;;;;;48.23;46.03;;;9.70;97.30;;;;;;5101345;28;20532;-81
2022/02/08 20:00:23;;;;;;;51.00;48.77;;;9.70;97.20;;;;;;5099266;28;20556;-81
2022/02/08 20:02:53;;;;;;;47.57;45.27;;;9.70;97.30;;;;;;5081280;28;20458;-80
2022/02/08 20:05:21;;;;;;;36.40;34.80;;;9.70;97.20;;;;;;5081216;28;20474;-81
2022/02/08 20:07:48;;;;;;;38.80;37.00;;;9.80;96.70;;;;;;5101790;28;20453;-80
2022/02/08 20:10:17;;;;;;;31.53;29.83;;;9.80;96.80;;;;;;5098863;28;20473;-81
2022/02/08 20:12:44;;;;;;;28.77;27.40;;;9.70;96.40;;;;;;5081207;28;20453;-80
2022/02/08 20:15:12;;;;;;;25.97;24.60;;;9.90;96.30;;;;;;5092781;28;20452;-81
2022/02/08 20:17:40;;;;;;;20.27;19.17;;;9.80;96.10;;;;;;5101556;28;20490;-80
2022/02/08 20:20:11;;;;;;;19.53;18.57;;;9.80;95.60;;;;;;5089535;28;21051;-80
2022/02/08 20:22:39;;;;;;;16.23;15.27;;;9.70;95.70;;;;;;5079905;28;20454;-80
2022/02/08 20:25:08;;;;;;;15.50;14.33;;;9.70;95.30;;;;;;5090540;28;20541;-80
2022/02/08 20:27:46;;;;;;;15.00;14.07;;;9.70;95.30;;;;;;5099574;28;20981;-80
2022/02/08 20:30:15;;;;;;;14.50;13.70;;;9.70;95.10;;;;;;5089262;28;20557;-80
2022/02/08 20:32:43;;;;;;;14.97;13.70;;;9.70;95.20;;;;;;5079711;28;20952;-81
2022/02/08 20:35:10;;;;;;;10.80;10.00;;;9.70;95.00;;;;;;5088788;28;20450;-81
2022/02/08 20:37:39;;;;;;;10.00;9.30;;;9.70;94.90;;;;;;5099325;28;20454;-81
2022/02/08 20:40:07;;;;;;;11.07;10.37;;;9.70;94.40;;;;;;5093251;28;20490;-81
2022/02/08 20:42:34;;;;;;;11.03;10.03;;;9.60;94.60;;;;;;5080472;28;20450;-81
2022/02/08 20:45:05;;;;;;;12.93;11.97;;;9.70;94.50;;;;;;5084374;28;20485;-82
2022/02/08 20:47:31;;;;;;;15.07;14.10;;;9.60;94.80;;;;;;5096968;28;20564;-80
2022/02/08 20:50:10;;;;;;;12.23;11.33;;;9.60;94.90;;;;;;5089297;28;20475;-80
2022/02/08 20:52:40;;;;;;;15.90;14.77;;;9.70;94.60;;;;;;5077721;28;20487;-80
2022/02/08 20:55:10;;;;;;;14.77;13.73;;;9.60;95.00;;;;;;5095579;28;20957;-80
2022/02/08 20:57:38;;;;;;;17.20;16.03;;;9.60;95.00;;;;;;5097816;28;20453;-80